sensor_id;sensor_type;location;lat;lon;timestamp;P1;durP1;ratioP1;P2;durP2;ratioP2
13079;SDS011;6606;49.154;9.280;2022-09-09T00:02:08;3.87;;;1.60;;
13079;SDS011;6606;49.154;9.280;2022-09-09T00:04:46;3.20;;;1.57;;
13079;SDS011;6606;49.154;9.280;2022-09-09T00:07:24;2.23;;;1.47;;
13079;SDS011;6606;49.154;9.280;2022-09-09T00:09:59;3.07;;;1.70;;
13079;SDS011;6606;49.154;9.280;2022-09-09T00:12:36;3.67;;;1.80;;
13079;SDS011;6606;49.154;9.280;2022-09-09T00:15:11;4.23;;;1.40;;
13079;SDS011;6606;49.154;9.280;2022-09-09T00:17:41;3.27;;;1.60;;
13079;SDS011;6606;49.154;9.280;2022-09-09T00:20:16;1.97;;;1.37;;
13079;SDS011;6606;49.154;9.280;2022-09-09T00:22:51;5.40;;;1.50;;
13079;SDS011;6606;49.154;9.280;2022-09-09T00:25:26;3.77;;;1.30;;
13079;SDS011;6606;49.154;9.280;2022-09-09T00:27:59;3.50;;;1.47;;
13079;SDS011;6606;49.154;9.280;2022-09-09T00:30:27;3.53;;;1.40;;
13079;SDS011;6606;49.154;9.280;2022-09-09T00:33:00;4.10;;;1.37;;
13079;SDS011;6606;49.154;9.280;2022-09-09T00:35:38;2.30;;;1.30;;
13079;SDS011;6606;49.154;9.280;2022-09-09T00:38:09;2.90;;;1.47;;
13079;SDS011;6606;49.154;9.280;2022-09-09T00:40:41;2.70;;;1.33;;
13079;SDS011;6606;49.154;9.280;2022-09-09T00:43:20;5.60;;;1.50;;
13079;SDS011;6606;49.154;9.280;2022-09-09T00:45:59;5.27;;;1.67;;
13079;SDS011;6606;49.154;9.280;2022-09-09T00:48:54;2.20;;;1.20;;
13079;SDS011;6606;49.154;9.280;2022-09-09T00:51:33;3.60;;;1.20;;
13079;SDS011;6606;49.154;9.280;2022-09-09T00:54:13;3.93;;;1.60;;
13079;SDS011;6606;49.154;9.280;2022-09-09T00:56:55;2.83;;;1.20;;
13079;SDS011;6606;49.154;9.280;2022-09-09T00:59:32;2.90;;;1.37;;
13079;SDS011;6606;49.154;9.280;2022-09-09T01:02:07;4.40;;;1.40;;
13079;SDS011;6606;49.154;9.280;2022-09-09T01:04:42;4.35;;;1.27;;
13079;SDS011;6606;49.154;9.280;2022-09-09T01:07:12;4.07;;;1.20;;
13079;SDS011;6606;49.154;9.280;2022-09-09T01:09:45;2.88;;;1.25;;
13079;SDS011;6606;49.154;9.280;2022-09-09T01:12:24;3.28;;;1.30;;
13079;SDS011;6606;49.154;9.280;2022-09-09T01:14:57;3.47;;;1.30;;
13079;SDS011;6606;49.154;9.280;2022-09-09T01:17:31;4.43;;;1.40;;
13079;SDS011;6606;49.154;9.280;2022-09-09T01:20:10;6.33;;;1.43;;
13079;SDS011;6606;49.154;9.280;2022-09-09T01:22:52;3.27;;;1.23;;
13079;SDS011;6606;49.154;9.280;2022-09-09T01:25:57;2.47;;;1.30;;
13079;SDS011;6606;49.154;9.280;2022-09-09T01:28:38;4.78;;;1.40;;
13079;SDS011;6606;49.154;9.280;2022-09-09T01:31:11;5.13;;;1.40;;
13079;SDS011;6606;49.154;9.280;2022-09-09T01:33:44;4.20;;;1.23;;
13079;SDS011;6606;49.154;9.280;2022-09-09T01:36:12;7.27;;;1.30;;
13079;SDS011;6606;49.154;9.280;2022-09-09T01:38:48;4.27;;;1.40;;
13079;SDS011;6606;49.154;9.280;2022-09-09T01:41:17;3.38;;;1.27;;
13079;SDS011;6606;49.154;9.280;2022-09-09T01:43:54;4.22;;;1.42;;
13079;SDS011;6606;49.154;9.280;2022-09-09T01:46:21;2.83;;;1.20;;
13079;SDS011;6606;49.154;9.280;2022-09-09T01:48:49;3.92;;;1.38;;
13079;SDS011;6606;49.154;9.280;2022-09-09T01:51:17;3.17;;;1.40;;
13079;SDS011;6606;49.154;9.280;2022-09-09T01:53:43;3.30;;;1.48;;
13079;SDS011;6606;49.154;9.280;2022-09-09T01:56:17;3.45;;;1.30;;
13079;SDS011;6606;49.154;9.280;2022-09-09T01:59:11;3.42;;;1.35;;
13079;SDS011;6606;49.154;9.280;2022-09-09T02:01:57;3.13;;;1.20;;
13079;SDS011;6606;49.154;9.280;2022-09-09T02:04:36;3.25;;;1.20;;
13079;SDS011;6606;49.154;9.280;2022-09-09T02:07:14;4.07;;;1.50;;
13079;SDS011;6606;49.154;9.280;2022-09-09T02:09:53;4.15;;;1.38;;
13079;SDS011;6606;49.154;9.280;2022-09-09T02:12:27;3.28;;;1.27;;
13079;SDS011;6606;49.154;9.280;2022-09-09T02:14:59;3.17;;;1.42;;
13079;SDS011;6606;49.154;9.280;2022-09-09T02:17:36;4.80;;;1.27;;
13079;SDS011;6606;49.154;9.280;2022-09-09T02:20:12;4.95;;;1.45;;
13079;SDS011;6606;49.154;9.280;2022-09-09T02:22:46;5.53;;;1.30;;
13079;SDS011;6606;49.154;9.280;2022-09-09T02:25:18;5.25;;;1.52;;
13079;SDS011;6606;49.154;9.280;2022-09-09T02:27:51;2.85;;;1.30;;
13079;SDS011;6606;49.154;9.280;2022-09-09T02:30:18;2.90;;;1.23;;
13079;SDS011;6606;49.154;9.280;2022-09-09T02:32:51;2.42;;;1.15;;
13079;SDS011;6606;49.154;9.280;2022-09-09T02:35:30;2.92;;;1.52;;
13079;SDS011;6606;49.154;9.280;2022-09-09T02:37:59;3.85;;;1.33;;
13079;SDS011;6606;49.154;9.280;2022-09-09T02:40:30;3.57;;;1.53;;
13079;SDS011;6606;49.154;9.280;2022-09-09T02:43:01;1.75;;;1.10;;
13079;SDS011;6606;49.154;9.280;2022-09-09T02:45:31;3.55;;;1.38;;
13079;SDS011;6606;49.154;9.280;2022-09-09T02:48:07;2.67;;;1.50;;
13079;SDS011;6606;49.154;9.280;2022-09-09T02:50:50;4.50;;;1.55;;
13079;SDS011;6606;49.154;9.280;2022-09-09T02:53:32;3.10;;;1.30;;
13079;SDS011;6606;49.154;9.280;2022-09-09T02:56:08;3.77;;;1.30;;
13079;SDS011;6606;49.154;9.280;2022-09-09T02:58:43;5.37;;;1.50;;
13079;SDS011;6606;49.154;9.280;2022-09-09T03:01:11;5.90;;;1.40;;
13079;SDS011;6606;49.154;9.280;2022-09-09T03:03:38;3.80;;;1.33;;
13079;SDS011;6606;49.154;9.280;2022-09-09T03:06:10;5.23;;;1.50;;
13079;SDS011;6606;49.154;9.280;2022-09-09T03:08:38;2.22;;;1.00;;
13079;SDS011;6606;49.154;9.280;2022-09-09T03:11:05;5.00;;;1.50;;
13079;SDS011;6606;49.154;9.280;2022-09-09T03:13:34;3.38;;;1.27;;
13079;SDS011;6606;49.154;9.280;2022-09-09T03:16:03;2.63;;;1.30;;
13079;SDS011;6606;49.154;9.280;2022-09-09T03:18:35;3.97;;;1.30;;
13079;SDS011;6606;49.154;9.280;2022-09-09T03:21:01;3.27;;;1.37;;
13079;SDS011;6606;49.154;9.280;2022-09-09T03:23:28;3.97;;;1.13;;
13079;SDS011;6606;49.154;9.280;2022-09-09T03:25:58;3.07;;;1.43;;
13079;SDS011;6606;49.154;9.280;2022-09-09T03:28:34;2.43;;;1.40;;
13079;SDS011;6606;49.154;9.280;2022-09-09T03:31:04;3.57;;;1.50;;
13079;SDS011;6606;49.154;9.280;2022-09-09T03:33:36;3.57;;;1.40;;
13079;SDS011;6606;49.154;9.280;2022-09-09T03:36:03;2.97;;;1.23;;
13079;SDS011;6606;49.154;9.280;2022-09-09T03:38:30;2.90;;;1.25;;
13079;SDS011;6606;49.154;9.280;2022-09-09T03:40:58;2.07;;;1.20;;
13079;SDS011;6606;49.154;9.280;2022-09-09T03:43:26;3.37;;;1.53;;
13079;SDS011;6606;49.154;9.280;2022-09-09T03:45:54;3.13;;;1.33;;
13079;SDS011;6606;49.154;9.280;2022-09-09T03:48:24;3.57;;;1.43;;
13079;SDS011;6606;49.154;9.280;2022-09-09T03:50:53;2.80;;;1.50;;
13079;SDS011;6606;49.154;9.280;2022-09-09T03:53:23;3.87;;;1.40;;
13079;SDS011;6606;49.154;9.280;2022-09-09T03:55:51;5.47;;;1.50;;
13079;SDS011;6606;49.154;9.280;2022-09-09T03:58:21;3.20;;;1.50;;
13079;SDS011;6606;49.154;9.280;2022-09-09T04:00:53;5.20;;;1.60;;
13079;SDS011;6606;49.154;9.280;2022-09-09T04:03:21;2.17;;;1.20;;
13079;SDS011;6606;49.154;9.280;2022-09-09T04:05:51;3.13;;;1.50;;
13079;SDS011;6606;49.154;9.280;2022-09-09T04:08:19;3.97;;;1.53;;
13079;SDS011;6606;49.154;9.280;2022-09-09T04:10:48;2.50;;;1.40;;
13079;SDS011;6606;49.154;9.280;2022-09-09T04:13:17;4.03;;;1.30;;
13079;SDS011;6606;49.154;9.280;2022-09-09T04:15:50;4.27;;;1.37;;
13079;SDS011;6606;49.154;9.280;2022-09-09T04:18:17;3.73;;;1.30;;
13079;SDS011;6606;49.154;9.280;2022-09-09T04:20:46;3.57;;;1.33;;
13079;SDS011;6606;49.154;9.280;2022-09-09T04:23:15;1.47;;;1.23;;
13079;SDS011;6606;49.154;9.280;2022-09-09T04:25:44;5.17;;;1.47;;
13079;SDS011;6606;49.154;9.280;2022-09-09T04:28:12;3.57;;;1.27;;
13079;SDS011;6606;49.154;9.280;2022-09-09T04:30:39;2.90;;;1.40;;
13079;SDS011;6606;49.154;9.280;2022-09-09T04:33:06;2.93;;;1.13;;
13079;SDS011;6606;49.154;9.280;2022-09-09T04:35:33;3.67;;;1.60;;
13079;SDS011;6606;49.154;9.280;2022-09-09T04:38:00;3.10;;;1.20;;
13079;SDS011;6606;49.154;9.280;2022-09-09T04:40:31;3.57;;;1.40;;
13079;SDS011;6606;49.154;9.280;2022-09-09T04:42:58;4.33;;;1.50;;
13079;SDS011;6606;49.154;9.280;2022-09-09T04:45:25;3.17;;;1.10;;
13079;SDS011;6606;49.154;9.280;2022-09-09T04:47:52;3.07;;;1.20;;
13079;SDS011;6606;49.154;9.280;2022-09-09T04:50:20;4.10;;;1.13;;
13079;SDS011;6606;49.154;9.280;2022-09-09T04:52:47;1.60;;;0.90;;
13079;SDS011;6606;49.154;9.280;2022-09-09T04:55:14;2.77;;;1.20;;
13079;SDS011;6606;49.154;9.280;2022-09-09T04:57:44;4.93;;;1.27;;
13079;SDS011;6606;49.154;9.280;2022-09-09T05:00:11;2.83;;;1.03;;
13079;SDS011;6606;49.154;9.280;2022-09-09T05:02:40;3.73;;;1.40;;
13079;SDS011;6606;49.154;9.280;2022-09-09T05:05:07;4.90;;;1.60;;
13079;SDS011;6606;49.154;9.280;2022-09-09T05:07:36;2.27;;;1.10;;
13079;SDS011;6606;49.154;9.280;2022-09-09T05:10:03;2.10;;;1.17;;
13079;SDS011;6606;49.154;9.280;2022-09-09T05:12:31;3.30;;;1.30;;
13079;SDS011;6606;49.154;9.280;2022-09-09T05:14:59;3.13;;;1.27;;
13079;SDS011;6606;49.154;9.280;2022-09-09T05:17:26;3.23;;;1.13;;
13079;SDS011;6606;49.154;9.280;2022-09-09T05:19:54;5.17;;;1.30;;
13079;SDS011;6606;49.154;9.280;2022-09-09T05:22:20;3.17;;;1.40;;
13079;SDS011;6606;49.154;9.280;2022-09-09T05:24:49;2.27;;;1.00;;
13079;SDS011;6606;49.154;9.280;2022-09-09T05:27:16;3.30;;;1.30;;
13079;SDS011;6606;49.154;9.280;2022-09-09T05:29:45;2.77;;;1.20;;
13079;SDS011;6606;49.154;9.280;2022-09-09T05:32:14;2.90;;;1.40;;
13079;SDS011;6606;49.154;9.280;2022-09-09T05:34:44;1.90;;;1.10;;
13079;SDS011;6606;49.154;9.280;2022-09-09T05:37:12;3.33;;;1.23;;
13079;SDS011;6606;49.154;9.280;2022-09-09T05:39:38;4.33;;;1.30;;
13079;SDS011;6606;49.154;9.280;2022-09-09T05:42:05;4.53;;;1.40;;
13079;SDS011;6606;49.154;9.280;2022-09-09T05:44:32;3.30;;;1.30;;
13079;SDS011;6606;49.154;9.280;2022-09-09T05:47:00;1.87;;;1.10;;
13079;SDS011;6606;49.154;9.280;2022-09-09T05:49:28;3.03;;;1.20;;
13079;SDS011;6606;49.154;9.280;2022-09-09T05:51:54;4.23;;;1.30;;
13079;SDS011;6606;49.154;9.280;2022-09-09T05:54:22;3.55;;;1.33;;
13079;SDS011;6606;49.154;9.280;2022-09-09T05:56:50;2.93;;;1.27;;
13079;SDS011;6606;49.154;9.280;2022-09-09T05:59:18;2.88;;;1.10;;
13079;SDS011;6606;49.154;9.280;2022-09-09T06:01:45;1.87;;;1.10;;
13079;SDS011;6606;49.154;9.280;2022-09-09T06:04:21;4.47;;;1.27;;
13079;SDS011;6606;49.154;9.280;2022-09-09T06:06:50;5.40;;;1.30;;
13079;SDS011;6606;49.154;9.280;2022-09-09T06:09:19;3.58;;;1.20;;
13079;SDS011;6606;49.154;9.280;2022-09-09T06:11:46;1.42;;;1.00;;
13079;SDS011;6606;49.154;9.280;2022-09-09T06:14:14;5.10;;;1.55;;
13079;SDS011;6606;49.154;9.280;2022-09-09T06:16:45;3.33;;;1.25;;
13079;SDS011;6606;49.154;9.280;2022-09-09T06:19:19;2.60;;;1.20;;
13079;SDS011;6606;49.154;9.280;2022-09-09T06:21:46;3.15;;;1.10;;
13079;SDS011;6606;49.154;9.280;2022-09-09T06:24:16;1.77;;;1.00;;
13079;SDS011;6606;49.154;9.280;2022-09-09T06:26:44;1.60;;;0.88;;
13079;SDS011;6606;49.154;9.280;2022-09-09T06:29:16;2.42;;;1.20;;
13079;SDS011;6606;49.154;9.280;2022-09-09T06:31:44;2.05;;;1.00;;
13079;SDS011;6606;49.154;9.280;2022-09-09T06:34:18;2.13;;;1.05;;
13079;SDS011;6606;49.154;9.280;2022-09-09T06:36:48;3.00;;;1.10;;
13079;SDS011;6606;49.154;9.280;2022-09-09T06:39:17;2.80;;;1.08;;
13079;SDS011;6606;49.154;9.280;2022-09-09T06:41:44;2.08;;;1.00;;
13079;SDS011;6606;49.154;9.280;2022-09-09T06:44:38;5.13;;;1.23;;
13079;SDS011;6606;49.154;9.280;2022-09-09T06:47:07;3.30;;;1.20;;
13079;SDS011;6606;49.154;9.280;2022-09-09T06:49:34;2.35;;;1.10;;
13079;SDS011;6606;49.154;9.280;2022-09-09T06:52:04;2.45;;;1.27;;
13079;SDS011;6606;49.154;9.280;2022-09-09T06:54:32;2.22;;;1.17;;
13079;SDS011;6606;49.154;9.280;2022-09-09T06:57:03;3.95;;;1.20;;
13079;SDS011;6606;49.154;9.280;2022-09-09T06:59:32;4.05;;;1.30;;
13079;SDS011;6606;49.154;9.280;2022-09-09T07:01:59;2.58;;;1.20;;
13079;SDS011;6606;49.154;9.280;2022-09-09T07:04:27;3.08;;;1.10;;
13079;SDS011;6606;49.154;9.280;2022-09-09T07:06:53;2.97;;;1.15;;
13079;SDS011;6606;49.154;9.280;2022-09-09T07:09:23;2.47;;;1.10;;
13079;SDS011;6606;49.154;9.280;2022-09-09T07:11:52;4.80;;;1.35;;
13079;SDS011;6606;49.154;9.280;2022-09-09T07:14:21;5.82;;;1.00;;
13079;SDS011;6606;49.154;9.280;2022-09-09T07:16:53;3.78;;;1.05;;
13079;SDS011;6606;49.154;9.280;2022-09-09T07:19:20;2.97;;;1.08;;
13079;SDS011;6606;49.154;9.280;2022-09-09T07:21:50;2.85;;;1.30;;
13079;SDS011;6606;49.154;9.280;2022-09-09T07:24:19;3.90;;;1.23;;
13079;SDS011;6606;49.154;9.280;2022-09-09T07:26:46;2.15;;;1.10;;
13079;SDS011;6606;49.154;9.280;2022-09-09T07:29:14;2.70;;;1.15;;
13079;SDS011;6606;49.154;9.280;2022-09-09T07:31:41;3.17;;;1.10;;
13079;SDS011;6606;49.154;9.280;2022-09-09T07:34:12;3.10;;;1.10;;
13079;SDS011;6606;49.154;9.280;2022-09-09T07:36:40;4.80;;;1.30;;
13079;SDS011;6606;49.154;9.280;2022-09-09T07:39:11;2.92;;;1.20;;
13079;SDS011;6606;49.154;9.280;2022-09-09T07:41:43;2.03;;;1.10;;
13079;SDS011;6606;49.154;9.280;2022-09-09T07:44:13;3.25;;;1.35;;
13079;SDS011;6606;49.154;9.280;2022-09-09T07:46:45;3.70;;;1.23;;
13079;SDS011;6606;49.154;9.280;2022-09-09T07:49:16;4.43;;;1.20;;
13079;SDS011;6606;49.154;9.280;2022-09-09T07:51:44;3.00;;;1.20;;
13079;SDS011;6606;49.154;9.280;2022-09-09T07:54:14;3.63;;;1.10;;
13079;SDS011;6606;49.154;9.280;2022-09-09T07:56:46;2.47;;;1.00;;
13079;SDS011;6606;49.154;9.280;2022-09-09T07:59:16;4.88;;;1.20;;
13079;SDS011;6606;49.154;9.280;2022-09-09T08:01:46;5.85;;;1.30;;
13079;SDS011;6606;49.154;9.280;2022-09-09T08:04:21;2.88;;;1.02;;
13079;SDS011;6606;49.154;9.280;2022-09-09T08:06:50;3.72;;;1.20;;
13079;SDS011;6606;49.154;9.280;2022-09-09T08:09:19;8.20;;;1.67;;
13079;SDS011;6606;49.154;9.280;2022-09-09T08:11:50;3.88;;;1.10;;
13079;SDS011;6606;49.154;9.280;2022-09-09T08:14:18;5.93;;;1.20;;
13079;SDS011;6606;49.154;9.280;2022-09-09T08:16:46;3.95;;;1.30;;
13079;SDS011;6606;49.154;9.280;2022-09-09T08:19:18;2.78;;;1.20;;
13079;SDS011;6606;49.154;9.280;2022-09-09T08:21:46;4.10;;;1.95;;
13079;SDS011;6606;49.154;9.280;2022-09-09T08:24:14;3.83;;;1.35;;
13079;SDS011;6606;49.154;9.280;2022-09-09T08:26:44;3.03;;;1.27;;
13079;SDS011;6606;49.154;9.280;2022-09-09T08:29:12;6.30;;;1.65;;
13079;SDS011;6606;49.154;9.280;2022-09-09T08:31:42;4.00;;;1.25;;
13079;SDS011;6606;49.154;9.280;2022-09-09T08:34:10;7.45;;;1.90;;
13079;SDS011;6606;49.154;9.280;2022-09-09T08:36:38;4.40;;;1.58;;
13079;SDS011;6606;49.154;9.280;2022-09-09T08:39:08;4.00;;;1.48;;
13079;SDS011;6606;49.154;9.280;2022-09-09T08:41:39;4.78;;;1.17;;
13079;SDS011;6606;49.154;9.280;2022-09-09T08:44:19;4.03;;;1.45;;
13079;SDS011;6606;49.154;9.280;2022-09-09T08:46:59;5.35;;;1.30;;
13079;SDS011;6606;49.154;9.280;2022-09-09T08:49:49;4.60;;;1.60;;
13079;SDS011;6606;49.154;9.280;2022-09-09T08:52:25;6.00;;;1.40;;
13079;SDS011;6606;49.154;9.280;2022-09-09T08:54:55;4.82;;;1.50;;
13079;SDS011;6606;49.154;9.280;2022-09-09T08:57:28;4.70;;;1.30;;
13079;SDS011;6606;49.154;9.280;2022-09-09T08:59:57;3.88;;;1.27;;
13079;SDS011;6606;49.154;9.280;2022-09-09T09:02:27;6.88;;;1.40;;
13079;SDS011;6606;49.154;9.280;2022-09-09T09:05:07;4.43;;;1.50;;
13079;SDS011;6606;49.154;9.280;2022-09-09T09:07:52;2.88;;;1.45;;
13079;SDS011;6606;49.154;9.280;2022-09-09T09:10:31;2.22;;;1.00;;
13079;SDS011;6606;49.154;9.280;2022-09-09T09:13:07;2.55;;;1.08;;
13079;SDS011;6606;49.154;9.280;2022-09-09T09:15:41;3.15;;;1.13;;
13079;SDS011;6606;49.154;9.280;2022-09-09T09:18:12;2.78;;;1.30;;
13079;SDS011;6606;49.154;9.280;2022-09-09T09:20:44;3.25;;;1.40;;
13079;SDS011;6606;49.154;9.280;2022-09-09T09:23:19;4.07;;;1.27;;
13079;SDS011;6606;49.154;9.280;2022-09-09T09:25:49;5.20;;;1.50;;
13079;SDS011;6606;49.154;9.280;2022-09-09T09:28:19;4.32;;;1.20;;
13079;SDS011;6606;49.154;9.280;2022-09-09T09:30:54;4.25;;;1.10;;
13079;SDS011;6606;49.154;9.280;2022-09-09T09:33:26;4.82;;;1.80;;
13079;SDS011;6606;49.154;9.280;2022-09-09T09:35:59;3.90;;;1.33;;
13079;SDS011;6606;49.154;9.280;2022-09-09T09:38:28;4.75;;;1.55;;
13079;SDS011;6606;49.154;9.280;2022-09-09T09:40:58;4.15;;;1.60;;
13079;SDS011;6606;49.154;9.280;2022-09-09T09:43:28;4.13;;;1.42;;
13079;SDS011;6606;49.154;9.280;2022-09-09T09:45:58;5.15;;;1.55;;
13079;SDS011;6606;49.154;9.280;2022-09-09T09:48:27;4.53;;;1.25;;
13079;SDS011;6606;49.154;9.280;2022-09-09T09:50:55;7.90;;;1.65;;
13079;SDS011;6606;49.154;9.280;2022-09-09T09:53:25;4.78;;;1.83;;
13079;SDS011;6606;49.154;9.280;2022-09-09T09:55:55;4.95;;;1.65;;
13079;SDS011;6606;49.154;9.280;2022-09-09T09:58:24;9.07;;;1.27;;
13079;SDS011;6606;49.154;9.280;2022-09-09T10:00:54;5.30;;;1.52;;
13079;SDS011;6606;49.154;9.280;2022-09-09T10:03:27;5.95;;;1.70;;
13079;SDS011;6606;49.154;9.280;2022-09-09T10:05:56;6.00;;;1.63;;
13079;SDS011;6606;49.154;9.280;2022-09-09T10:08:23;4.97;;;1.63;;
13079;SDS011;6606;49.154;9.280;2022-09-09T10:13:53;5.65;;;1.90;;
13079;SDS011;6606;49.154;9.280;2022-09-09T10:16:30;4.70;;;1.60;;
13079;SDS011;6606;49.154;9.280;2022-09-09T10:19:12;10.27;;;2.03;;
13079;SDS011;6606;49.154;9.280;2022-09-09T10:21:51;5.70;;;1.45;;
13079;SDS011;6606;49.154;9.280;2022-09-09T10:24:41;5.25;;;1.38;;
13079;SDS011;6606;49.154;9.280;2022-09-09T10:27:18;4.68;;;1.23;;
13079;SDS011;6606;49.154;9.280;2022-09-09T10:29:57;7.25;;;1.67;;
13079;SDS011;6606;49.154;9.280;2022-09-09T10:32:38;3.58;;;1.55;;
13079;SDS011;6606;49.154;9.280;2022-09-09T10:35:21;4.13;;;1.60;;
13079;SDS011;6606;49.154;9.280;2022-09-09T10:37:56;5.97;;;1.58;;
13079;SDS011;6606;49.154;9.280;2022-09-09T10:40:32;4.90;;;1.45;;
13079;SDS011;6606;49.154;9.280;2022-09-09T10:43:07;6.60;;;1.50;;
13079;SDS011;6606;49.154;9.280;2022-09-09T10:45:48;6.95;;;1.60;;
13079;SDS011;6606;49.154;9.280;2022-09-09T10:48:28;4.95;;;1.45;;
13079;SDS011;6606;49.154;9.280;2022-09-09T10:51:02;2.70;;;1.30;;
13079;SDS011;6606;49.154;9.280;2022-09-09T10:53:45;5.53;;;1.40;;
13079;SDS011;6606;49.154;9.280;2022-09-09T10:56:19;5.05;;;1.45;;
13079;SDS011;6606;49.154;9.280;2022-09-09T10:58:50;6.72;;;1.48;;
13079;SDS011;6606;49.154;9.280;2022-09-09T11:01:20;4.43;;;1.40;;
13079;SDS011;6606;49.154;9.280;2022-09-09T11:03:52;4.38;;;1.40;;
13079;SDS011;6606;49.154;9.280;2022-09-09T11:06:24;3.47;;;1.30;;
13079;SDS011;6606;49.154;9.280;2022-09-09T11:08:55;3.55;;;1.30;;
13079;SDS011;6606;49.154;9.280;2022-09-09T11:11:27;4.55;;;1.30;;
13079;SDS011;6606;49.154;9.280;2022-09-09T11:14:01;4.25;;;1.30;;
13079;SDS011;6606;49.154;9.280;2022-09-09T11:16:36;2.92;;;1.15;;
13079;SDS011;6606;49.154;9.280;2022-09-09T11:19:11;3.83;;;1.30;;
13079;SDS011;6606;49.154;9.280;2022-09-09T11:21:43;3.13;;;1.30;;
13079;SDS011;6606;49.154;9.280;2022-09-09T11:24:13;7.03;;;1.52;;
13079;SDS011;6606;49.154;9.280;2022-09-09T11:26:49;2.95;;;1.15;;
13079;SDS011;6606;49.154;9.280;2022-09-09T11:32:26;5.80;;;1.52;;
13079;SDS011;6606;49.154;9.280;2022-09-09T11:35:07;3.53;;;1.40;;
13079;SDS011;6606;49.154;9.280;2022-09-09T11:37:58;3.45;;;1.25;;
13079;SDS011;6606;49.154;9.280;2022-09-09T11:40:36;3.05;;;1.20;;
13079;SDS011;6606;49.154;9.280;2022-09-09T11:43:04;3.97;;;1.17;;
13079;SDS011;6606;49.154;9.280;2022-09-09T11:45:37;2.83;;;1.05;;
13079;SDS011;6606;49.154;9.280;2022-09-09T11:48:10;3.90;;;1.60;;
13079;SDS011;6606;49.154;9.280;2022-09-09T11:50:57;4.22;;;1.35;;
13079;SDS011;6606;49.154;9.280;2022-09-09T11:53:26;3.45;;;1.35;;
13079;SDS011;6606;49.154;9.280;2022-09-09T11:56:00;3.78;;;1.33;;
13079;SDS011;6606;49.154;9.280;2022-09-09T11:58:33;2.72;;;1.00;;
13079;SDS011;6606;49.154;9.280;2022-09-09T12:01:14;1.67;;;0.90;;
13079;SDS011;6606;49.154;9.280;2022-09-09T12:03:43;4.40;;;0.90;;
13079;SDS011;6606;49.154;9.280;2022-09-09T12:06:13;3.63;;;1.00;;
13079;SDS011;6606;49.154;9.280;2022-09-09T12:08:48;2.05;;;0.90;;
13079;SDS011;6606;49.154;9.280;2022-09-09T12:11:24;3.17;;;0.98;;
13079;SDS011;6606;49.154;9.280;2022-09-09T12:13:53;4.55;;;1.52;;
13079;SDS011;6606;49.154;9.280;2022-09-09T12:19:06;2.00;;;0.77;;
13079;SDS011;6606;49.154;9.280;2022-09-09T12:21:41;1.73;;;0.68;;
13079;SDS011;6606;49.154;9.280;2022-09-09T12:24:16;3.90;;;1.00;;
13079;SDS011;6606;49.154;9.280;2022-09-09T12:26:52;2.72;;;0.85;;
13079;SDS011;6606;49.154;9.280;2022-09-09T12:29:26;2.00;;;0.60;;
13079;SDS011;6606;49.154;9.280;2022-09-09T12:32:00;2.58;;;0.90;;
13079;SDS011;6606;49.154;9.280;2022-09-09T12:34:34;2.20;;;0.68;;
13079;SDS011;6606;49.154;9.280;2022-09-09T12:37:06;1.38;;;0.73;;
13079;SDS011;6606;49.154;9.280;2022-09-09T12:39:45;1.27;;;0.77;;
13079;SDS011;6606;49.154;9.280;2022-09-09T12:42:16;1.80;;;0.70;;
13079;SDS011;6606;49.154;9.280;2022-09-09T12:44:50;2.58;;;0.90;;
13079;SDS011;6606;49.154;9.280;2022-09-09T12:47:17;2.60;;;0.80;;
13079;SDS011;6606;49.154;9.280;2022-09-09T12:49:48;1.10;;;0.60;;
13079;SDS011;6606;49.154;9.280;2022-09-09T12:52:17;1.00;;;0.70;;
13079;SDS011;6606;49.154;9.280;2022-09-09T12:54:53;1.88;;;0.70;;
13079;SDS011;6606;49.154;9.280;2022-09-09T12:57:20;1.10;;;0.70;;
13079;SDS011;6606;49.154;9.280;2022-09-09T12:59:50;1.83;;;0.70;;
13079;SDS011;6606;49.154;9.280;2022-09-09T13:02:19;1.13;;;0.50;;
13079;SDS011;6606;49.154;9.280;2022-09-09T13:04:48;1.95;;;0.70;;
13079;SDS011;6606;49.154;9.280;2022-09-09T13:07:16;2.33;;;0.73;;
13079;SDS011;6606;49.154;9.280;2022-09-09T13:09:43;2.15;;;0.93;;
13079;SDS011;6606;49.154;9.280;2022-09-09T13:12:13;1.30;;;0.75;;
13079;SDS011;6606;49.154;9.280;2022-09-09T13:14:43;0.82;;;0.50;;
13079;SDS011;6606;49.154;9.280;2022-09-09T13:17:19;2.33;;;0.90;;
13079;SDS011;6606;49.154;9.280;2022-09-09T13:19:48;1.55;;;0.70;;
13079;SDS011;6606;49.154;9.280;2022-09-09T13:22:20;3.17;;;0.95;;
13079;SDS011;6606;49.154;9.280;2022-09-09T13:24:57;1.70;;;0.80;;
13079;SDS011;6606;49.154;9.280;2022-09-09T13:27:30;1.85;;;0.80;;
13079;SDS011;6606;49.154;9.280;2022-09-09T13:29:59;1.05;;;0.68;;
13079;SDS011;6606;49.154;9.280;2022-09-09T13:32:27;1.83;;;0.77;;
13079;SDS011;6606;49.154;9.280;2022-09-09T13:34:57;2.47;;;0.80;;
13079;SDS011;6606;49.154;9.280;2022-09-09T13:37:26;1.70;;;0.85;;
13079;SDS011;6606;49.154;9.280;2022-09-09T13:39:58;2.42;;;0.88;;
13079;SDS011;6606;49.154;9.280;2022-09-09T13:42:26;2.08;;;1.05;;
13079;SDS011;6606;49.154;9.280;2022-09-09T13:44:55;4.43;;;1.10;;
13079;SDS011;6606;49.154;9.280;2022-09-09T13:47:27;1.95;;;0.90;;
13079;SDS011;6606;49.154;9.280;2022-09-09T13:49:57;5.35;;;0.90;;
13079;SDS011;6606;49.154;9.280;2022-09-09T13:52:24;2.53;;;0.85;;
13079;SDS011;6606;49.154;9.280;2022-09-09T13:54:53;3.25;;;1.00;;
13079;SDS011;6606;49.154;9.280;2022-09-09T13:57:21;2.03;;;0.88;;
13079;SDS011;6606;49.154;9.280;2022-09-09T13:59:50;3.30;;;0.82;;
13079;SDS011;6606;49.154;9.280;2022-09-09T14:02:19;5.38;;;0.90;;
13079;SDS011;6606;49.154;9.280;2022-09-09T14:04:46;2.28;;;1.13;;
13079;SDS011;6606;49.154;9.280;2022-09-09T14:07:16;1.73;;;0.90;;
13079;SDS011;6606;49.154;9.280;2022-09-09T14:09:44;3.72;;;1.00;;
13079;SDS011;6606;49.154;9.280;2022-09-09T14:12:15;2.92;;;0.98;;
13079;SDS011;6606;49.154;9.280;2022-09-09T14:14:42;5.85;;;1.00;;
13079;SDS011;6606;49.154;9.280;2022-09-09T14:17:09;5.40;;;1.00;;
13079;SDS011;6606;49.154;9.280;2022-09-09T14:19:37;4.82;;;1.20;;
13079;SDS011;6606;49.154;9.280;2022-09-09T14:22:03;3.38;;;1.25;;
13079;SDS011;6606;49.154;9.280;2022-09-09T14:24:30;4.43;;;1.02;;
13079;SDS011;6606;49.154;9.280;2022-09-09T14:26:57;3.47;;;1.30;;
13079;SDS011;6606;49.154;9.280;2022-09-09T14:29:23;5.05;;;1.40;;
13079;SDS011;6606;49.154;9.280;2022-09-09T14:31:51;3.00;;;1.20;;
13079;SDS011;6606;49.154;9.280;2022-09-09T14:34:18;3.17;;;1.20;;
13079;SDS011;6606;49.154;9.280;2022-09-09T14:36:46;4.57;;;1.30;;
13079;SDS011;6606;49.154;9.280;2022-09-09T14:39:13;4.28;;;1.40;;
13079;SDS011;6606;49.154;9.280;2022-09-09T14:41:40;5.50;;;1.50;;
13079;SDS011;6606;49.154;9.280;2022-09-09T14:44:06;4.93;;;1.48;;
13079;SDS011;6606;49.154;9.280;2022-09-09T14:46:33;4.22;;;1.38;;
13079;SDS011;6606;49.154;9.280;2022-09-09T14:49:00;2.15;;;1.10;;
13079;SDS011;6606;49.154;9.280;2022-09-09T14:51:26;4.80;;;1.30;;
13079;SDS011;6606;49.154;9.280;2022-09-09T14:53:55;3.47;;;1.27;;
13079;SDS011;6606;49.154;9.280;2022-09-09T14:56:24;3.55;;;1.20;;
13079;SDS011;6606;49.154;9.280;2022-09-09T14:58:52;2.17;;;1.00;;
13079;SDS011;6606;49.154;9.280;2022-09-09T15:01:21;2.13;;;1.00;;
13079;SDS011;6606;49.154;9.280;2022-09-09T15:03:49;4.03;;;1.55;;
13079;SDS011;6606;49.154;9.280;2022-09-09T15:06:17;2.15;;;0.90;;
13079;SDS011;6606;49.154;9.280;2022-09-09T15:08:45;3.17;;;1.20;;
13079;SDS011;6606;49.154;9.280;2022-09-09T15:11:14;3.22;;;1.10;;
13079;SDS011;6606;49.154;9.280;2022-09-09T15:13:42;3.75;;;1.30;;
13079;SDS011;6606;49.154;9.280;2022-09-09T15:16:10;2.65;;;1.10;;
13079;SDS011;6606;49.154;9.280;2022-09-09T15:18:38;2.20;;;1.30;;
13079;SDS011;6606;49.154;9.280;2022-09-09T15:21:08;2.50;;;1.30;;
13079;SDS011;6606;49.154;9.280;2022-09-09T15:23:35;3.10;;;1.05;;
13079;SDS011;6606;49.154;9.280;2022-09-09T15:26:02;2.72;;;1.00;;
13079;SDS011;6606;49.154;9.280;2022-09-09T15:28:32;4.35;;;1.23;;
13079;SDS011;6606;49.154;9.280;2022-09-09T15:31:04;3.08;;;1.00;;
13079;SDS011;6606;49.154;9.280;2022-09-09T15:33:32;3.63;;;1.10;;
13079;SDS011;6606;49.154;9.280;2022-09-09T15:36:12;3.88;;;1.15;;